Terminal Aerodrome Forecast
Issued by NWS

Home | Current Version | Previous Version | Text Only | Print | Product List | Glossary On
Versions: 1 2 3 4 5 6 7 8 9 10 11 12 13 14
000
FTUS45 KREV 031700
TAFMMH
TAF
KMMH 031722Z 0318/0418 12005KT P6SM SKC
     FM031900 20007KT P6SM BKN100
     FM040000 26011G17KT P6SM SCT080
     FM040400 VRB04KT P6SM SKC=

USA.gov is the U.S. government's official web portal to all federal, state and local government web resources and services.